Fredericksburg, TX (78624)

12:50 PM CST on February 07, 2016 (GMT -0600)
Stehling Hill US 87 North | | Change Station
CLOSE
Current Station
Personal Weather Station
Location: Fredericksburg, TX
Elevation: 1957 ft
Nearby Weather Stations

Elev 1957 ft 30.33 °N, 98.92 °W | Updated 0 second ago

Clear
Clear
61.4 °F
Feels Like 61.4 °F
N
9.0
Wind Variable Wind from SSW
Gusts 16.0 mph

Today
High -- | Low -- °F
--% Chance of Precip.
Yesterday
High -- | Low -- °F
Precip. -- in
Pressure 30.20 in
Visibility 10.0 miles
Clouds Clear
Dew Point 33 °F
Humidity 34%
Rainfall 0.00 in
Snow Depth Not available.
7:22 AM 6:16 PM
Waning Crescent, 1% visible
METAR KT82 071835Z AUTO 22009G15KT 10SM CLR 16/M04 A3020 RMK AO2 T01561037
Pressure 30.20 in
Visibility 10.0 miles
Clouds Clear
Dew Point 33 °F
Humidity 34%
Rainfall 0.00 in
Snow Depth Not available.
7:22 AM 6:16 PM
Waning Crescent, 1% visible
METAR KT82 071835Z AUTO 22009G15KT 10SM CLR 16/M04 A3020 RMK AO2 T01561037

10-Day Weather Forecast

Almanac

Astronomy

Feb. 07, 2016 Rise Set
Actual Time
Civil Twilight
Nautical Twilight
Astronomical Twilight
Moon
Length of Visible Light
Length of Day
Tomorrow will be .
, % of the Moon is Illuminated

Today's Extremes

State Highs State Lows

Community

WunderPhotos

Upload Photos

1,891,280 photos uploaded!

WunderBlog® & News

Nearby

Air Quality

  Air Quality AQ Index Pollutant
Not available.

Snow Depth

Station Depth Elevation

Earthquake Activity

City Distance Mag. Time & Date
Minimum magnitude displayed is 2.5.

Coastal Water Temperatures

Place Temperature

Stations

Nearby Weather Stations

Station Location Temp. Windchill Dew Point Humidity Wind Precip. Elev Updated Type
                   

Watches & Warnings

There are currently no watches in effect.